sensor_id;sensor_type;location;lat;lon;timestamp;temperature;humidity
24011;DHT22;12217;50.792;4.372;2024-02-15T00:00:21;13.80;99.90
24011;DHT22;12217;50.792;4.372;2024-02-15T00:02:48;13.80;99.90
24011;DHT22;12217;50.792;4.372;2024-02-15T00:05:14;13.90;99.90
24011;DHT22;12217;50.792;4.372;2024-02-15T00:07:41;13.90;99.90
24011;DHT22;12217;50.792;4.372;2024-02-15T00:10:07;13.90;99.90
24011;DHT22;12217;50.792;4.372;2024-02-15T00:12:34;13.90;99.90
24011;DHT22;12217;50.792;4.372;2024-02-15T00:14:59;13.80;99.90
24011;DHT22;12217;50.792;4.372;2024-02-15T00:17:27;13.80;99.90
24011;DHT22;12217;50.792;4.372;2024-02-15T00:19:55;13.80;99.90
24011;DHT22;12217;50.792;4.372;2024-02-15T00:22:20;13.80;99.90
24011;DHT22;12217;50.792;4.372;2024-02-15T00:24:47;13.80;99.90
24011;DHT22;12217;50.792;4.372;2024-02-15T00:27:14;13.60;99.90
24011;DHT22;12217;50.792;4.372;2024-02-15T00:29:41;13.60;99.90
24011;DHT22;12217;50.792;4.372;2024-02-15T00:32:06;13.70;99.90
24011;DHT22;12217;50.792;4.372;2024-02-15T00:34:32;13.70;99.90
24011;DHT22;12217;50.792;4.372;2024-02-15T00:36:58;13.80;99.90
24011;DHT22;12217;50.792;4.372;2024-02-15T00:39:24;13.80;99.90
24011;DHT22;12217;50.792;4.372;2024-02-15T00:41:50;13.80;99.90
24011;DHT22;12217;50.792;4.372;2024-02-15T00:44:16;13.80;99.90
24011;DHT22;12217;50.792;4.372;2024-02-15T00:46:43;13.80;99.90
24011;DHT22;12217;50.792;4.372;2024-02-15T00:49:08;13.80;99.90
24011;DHT22;12217;50.792;4.372;2024-02-15T00:51:35;13.80;99.90
24011;DHT22;12217;50.792;4.372;2024-02-15T00:54:02;13.80;99.90
24011;DHT22;12217;50.792;4.372;2024-02-15T00:56:28;13.70;99.90
24011;DHT22;12217;50.792;4.372;2024-02-15T00:58:56;13.70;99.90
24011;DHT22;12217;50.792;4.372;2024-02-15T01:01:22;13.60;99.90
24011;DHT22;12217;50.792;4.372;2024-02-15T01:03:47;13.60;99.90
24011;DHT22;12217;50.792;4.372;2024-02-15T01:06:13;13.60;99.90
24011;DHT22;12217;50.792;4.372;2024-02-15T01:08:39;13.70;99.90
24011;DHT22;12217;50.792;4.372;2024-02-15T01:11:04;13.80;99.90
24011;DHT22;12217;50.792;4.372;2024-02-15T01:13:31;13.80;99.90
24011;DHT22;12217;50.792;4.372;2024-02-15T01:15:57;13.70;99.90
24011;DHT22;12217;50.792;4.372;2024-02-15T01:18:22;13.70;99.90
24011;DHT22;12217;50.792;4.372;2024-02-15T01:20:48;13.70;99.90
24011;DHT22;12217;50.792;4.372;2024-02-15T01:23:14;13.70;99.90
24011;DHT22;12217;50.792;4.372;2024-02-15T01:25:39;13.80;99.90
24011;DHT22;12217;50.792;4.372;2024-02-15T01:28:05;13.90;99.90
24011;DHT22;12217;50.792;4.372;2024-02-15T01:30:31;14.00;99.90
24011;DHT22;12217;50.792;4.372;2024-02-15T01:32:57;13.80;99.90
24011;DHT22;12217;50.792;4.372;2024-02-15T01:35:23;13.70;99.90
24011;DHT22;12217;50.792;4.372;2024-02-15T01:37:49;13.70;99.90
24011;DHT22;12217;50.792;4.372;2024-02-15T01:40:16;13.80;99.90
24011;DHT22;12217;50.792;4.372;2024-02-15T01:42:44;13.80;99.90
24011;DHT22;12217;50.792;4.372;2024-02-15T01:45:09;13.90;99.90
24011;DHT22;12217;50.792;4.372;2024-02-15T01:47:37;13.80;99.90
24011;DHT22;12217;50.792;4.372;2024-02-15T01:50:03;13.80;99.90
24011;DHT22;12217;50.792;4.372;2024-02-15T01:52:29;13.80;99.90
24011;DHT22;12217;50.792;4.372;2024-02-15T01:54:57;13.90;99.90
24011;DHT22;12217;50.792;4.372;2024-02-15T01:57:23;13.80;99.90
24011;DHT22;12217;50.792;4.372;2024-02-15T01:59:50;13.70;99.90
24011;DHT22;12217;50.792;4.372;2024-02-15T02:02:19;13.80;99.90
24011;DHT22;12217;50.792;4.372;2024-02-15T02:04:45;13.80;99.90
24011;DHT22;12217;50.792;4.372;2024-02-15T02:07:11;13.70;99.90
24011;DHT22;12217;50.792;4.372;2024-02-15T02:09:37;13.80;99.90
24011;DHT22;12217;50.792;4.372;2024-02-15T02:12:03;13.80;99.90
24011;DHT22;12217;50.792;4.372;2024-02-15T02:14:29;13.80;99.90
24011;DHT22;12217;50.792;4.372;2024-02-15T02:16:55;13.70;99.90
24011;DHT22;12217;50.792;4.372;2024-02-15T02:19:21;13.80;99.90
24011;DHT22;12217;50.792;4.372;2024-02-15T02:21:46;13.90;99.90
24011;DHT22;12217;50.792;4.372;2024-02-15T02:24:22;13.90;99.90
24011;DHT22;12217;50.792;4.372;2024-02-15T02:26:49;13.80;99.90
24011;DHT22;12217;50.792;4.372;2024-02-15T02:29:16;13.70;99.90
24011;DHT22;12217;50.792;4.372;2024-02-15T02:31:41;13.70;99.90
24011;DHT22;12217;50.792;4.372;2024-02-15T02:34:08;13.70;99.90
24011;DHT22;12217;50.792;4.372;2024-02-15T02:36:34;13.60;99.90
24011;DHT22;12217;50.792;4.372;2024-02-15T02:39:00;13.60;99.90
24011;DHT22;12217;50.792;4.372;2024-02-15T02:41:29;13.60;99.90
24011;DHT22;12217;50.792;4.372;2024-02-15T02:43:57;13.50;99.90
24011;DHT22;12217;50.792;4.372;2024-02-15T02:46:23;13.60;99.90
24011;DHT22;12217;50.792;4.372;2024-02-15T02:48:49;13.60;99.90
24011;DHT22;12217;50.792;4.372;2024-02-15T02:51:15;13.60;99.90
24011;DHT22;12217;50.792;4.372;2024-02-15T02:53:40;13.60;99.90
24011;DHT22;12217;50.792;4.372;2024-02-15T02:56:06;13.60;99.90
24011;DHT22;12217;50.792;4.372;2024-02-15T02:58:34;13.70;99.90
24011;DHT22;12217;50.792;4.372;2024-02-15T03:00:59;13.80;99.90
24011;DHT22;12217;50.792;4.372;2024-02-15T03:03:28;13.70;99.90
24011;DHT22;12217;50.792;4.372;2024-02-15T03:05:54;13.60;99.90
24011;DHT22;12217;50.792;4.372;2024-02-15T03:08:20;13.60;99.90
24011;DHT22;12217;50.792;4.372;2024-02-15T03:10:46;13.60;99.90
24011;DHT22;12217;50.792;4.372;2024-02-15T03:13:11;13.50;99.90
24011;DHT22;12217;50.792;4.372;2024-02-15T03:15:37;13.50;99.90
24011;DHT22;12217;50.792;4.372;2024-02-15T03:18:03;13.30;99.90
24011;DHT22;12217;50.792;4.372;2024-02-15T03:20:38;13.30;99.90
24011;DHT22;12217;50.792;4.372;2024-02-15T03:23:04;13.20;99.90
24011;DHT22;12217;50.792;4.372;2024-02-15T03:25:29;13.40;99.90
24011;DHT22;12217;50.792;4.372;2024-02-15T03:27:59;13.60;99.90
24011;DHT22;12217;50.792;4.372;2024-02-15T03:30:29;13.60;99.90
24011;DHT22;12217;50.792;4.372;2024-02-15T03:32:56;13.50;99.90
24011;DHT22;12217;50.792;4.372;2024-02-15T03:35:24;13.30;99.90
24011;DHT22;12217;50.792;4.372;2024-02-15T03:37:50;13.30;99.90
24011;DHT22;12217;50.792;4.372;2024-02-15T03:40:17;13.30;99.90
24011;DHT22;12217;50.792;4.372;2024-02-15T03:42:42;13.40;99.90
24011;DHT22;12217;50.792;4.372;2024-02-15T03:45:09;13.50;99.90
24011;DHT22;12217;50.792;4.372;2024-02-15T03:47:35;13.50;99.90
24011;DHT22;12217;50.792;4.372;2024-02-15T03:50:05;13.50;99.90
24011;DHT22;12217;50.792;4.372;2024-02-15T03:52:31;13.50;99.90
24011;DHT22;12217;50.792;4.372;2024-02-15T03:54:57;13.40;99.90
24011;DHT22;12217;50.792;4.372;2024-02-15T03:57:24;13.50;99.90
24011;DHT22;12217;50.792;4.372;2024-02-15T03:59:50;13.50;99.90
24011;DHT22;12217;50.792;4.372;2024-02-15T04:02:23;13.50;99.90
24011;DHT22;12217;50.792;4.372;2024-02-15T04:04:55;13.40;99.90
24011;DHT22;12217;50.792;4.372;2024-02-15T04:07:22;13.40;99.90
24011;DHT22;12217;50.792;4.372;2024-02-15T04:09:51;13.40;99.90
24011;DHT22;12217;50.792;4.372;2024-02-15T04:12:16;13.50;99.90
24011;DHT22;12217;50.792;4.372;2024-02-15T04:14:43;13.60;99.90
24011;DHT22;12217;50.792;4.372;2024-02-15T04:17:10;13.60;99.90
24011;DHT22;12217;50.792;4.372;2024-02-15T04:19:36;13.60;99.90
24011;DHT22;12217;50.792;4.372;2024-02-15T04:22:03;13.50;99.90
24011;DHT22;12217;50.792;4.372;2024-02-15T04:24:35;13.40;99.90
24011;DHT22;12217;50.792;4.372;2024-02-15T04:27:08;13.40;99.90
24011;DHT22;12217;50.792;4.372;2024-02-15T04:29:34;13.40;99.90
24011;DHT22;12217;50.792;4.372;2024-02-15T04:32:00;13.40;99.90
24011;DHT22;12217;50.792;4.372;2024-02-15T04:34:25;13.50;99.90
24011;DHT22;12217;50.792;4.372;2024-02-15T04:36:51;13.50;99.90
24011;DHT22;12217;50.792;4.372;2024-02-15T04:39:21;13.50;99.90
24011;DHT22;12217;50.792;4.372;2024-02-15T04:41:51;13.60;99.90
24011;DHT22;12217;50.792;4.372;2024-02-15T04:44:17;13.70;99.90
24011;DHT22;12217;50.792;4.372;2024-02-15T04:46:48;13.80;99.90
24011;DHT22;12217;50.792;4.372;2024-02-15T04:49:17;13.80;99.90
24011;DHT22;12217;50.792;4.372;2024-02-15T04:51:42;13.80;99.90
24011;DHT22;12217;50.792;4.372;2024-02-15T04:54:09;13.70;99.90
24011;DHT22;12217;50.792;4.372;2024-02-15T04:56:38;13.60;99.90
24011;DHT22;12217;50.792;4.372;2024-02-15T04:59:05;13.70;99.90
24011;DHT22;12217;50.792;4.372;2024-02-15T05:01:34;13.80;99.90
24011;DHT22;12217;50.792;4.372;2024-02-15T05:04:01;13.70;99.90
24011;DHT22;12217;50.792;4.372;2024-02-15T05:06:31;13.50;99.90
24011;DHT22;12217;50.792;4.372;2024-02-15T05:08:57;13.50;99.90
24011;DHT22;12217;50.792;4.372;2024-02-15T05:11:25;13.50;99.90
24011;DHT22;12217;50.792;4.372;2024-02-15T05:13:51;13.60;99.90
24011;DHT22;12217;50.792;4.372;2024-02-15T05:16:17;13.60;99.90
24011;DHT22;12217;50.792;4.372;2024-02-15T05:18:43;13.70;99.90
24011;DHT22;12217;50.792;4.372;2024-02-15T05:21:09;13.80;99.90
24011;DHT22;12217;50.792;4.372;2024-02-15T05:23:35;13.80;99.90
24011;DHT22;12217;50.792;4.372;2024-02-15T05:26:02;13.70;99.90
24011;DHT22;12217;50.792;4.372;2024-02-15T05:28:28;13.70;99.90
24011;DHT22;12217;50.792;4.372;2024-02-15T05:31:19;13.70;99.90
24011;DHT22;12217;50.792;4.372;2024-02-15T05:33:46;13.60;99.90
24011;DHT22;12217;50.792;4.372;2024-02-15T05:36:20;13.70;99.90
24011;DHT22;12217;50.792;4.372;2024-02-15T05:38:48;13.60;99.90
24011;DHT22;12217;50.792;4.372;2024-02-15T05:41:14;13.70;99.90
24011;DHT22;12217;50.792;4.372;2024-02-15T05:43:40;13.60;99.90
24011;DHT22;12217;50.792;4.372;2024-02-15T05:46:09;13.60;99.90
24011;DHT22;12217;50.792;4.372;2024-02-15T05:48:36;13.50;99.90
24011;DHT22;12217;50.792;4.372;2024-02-15T05:51:03;13.40;99.90
24011;DHT22;12217;50.792;4.372;2024-02-15T05:53:29;13.50;99.90
24011;DHT22;12217;50.792;4.372;2024-02-15T05:55:56;13.60;99.90
24011;DHT22;12217;50.792;4.372;2024-02-15T05:58:23;13.60;99.90
24011;DHT22;12217;50.792;4.372;2024-02-15T06:00:49;13.60;99.90
24011;DHT22;12217;50.792;4.372;2024-02-15T06:03:16;13.60;99.90
24011;DHT22;12217;50.792;4.372;2024-02-15T06:05:42;13.50;99.90
24011;DHT22;12217;50.792;4.372;2024-02-15T06:08:08;13.60;99.90
24011;DHT22;12217;50.792;4.372;2024-02-15T06:10:33;13.60;99.90
24011;DHT22;12217;50.792;4.372;2024-02-15T06:12:59;13.70;99.90
24011;DHT22;12217;50.792;4.372;2024-02-15T06:15:25;13.80;99.90
24011;DHT22;12217;50.792;4.372;2024-02-15T06:17:52;13.80;99.90
24011;DHT22;12217;50.792;4.372;2024-02-15T06:20:18;13.80;99.90
24011;DHT22;12217;50.792;4.372;2024-02-15T06:22:45;13.70;99.90
24011;DHT22;12217;50.792;4.372;2024-02-15T06:25:11;13.70;99.90
24011;DHT22;12217;50.792;4.372;2024-02-15T06:27:38;13.70;99.90
24011;DHT22;12217;50.792;4.372;2024-02-15T06:30:09;13.80;99.90
24011;DHT22;12217;50.792;4.372;2024-02-15T06:32:53;13.80;99.90
24011;DHT22;12217;50.792;4.372;2024-02-15T06:35:38;14.00;99.90
24011;DHT22;12217;50.792;4.372;2024-02-15T06:38:23;14.00;99.90
24011;DHT22;12217;50.792;4.372;2024-02-15T06:41:08;14.00;99.90
24011;DHT22;12217;50.792;4.372;2024-02-15T06:43:35;13.90;99.90
24011;DHT22;12217;50.792;4.372;2024-02-15T06:46:01;13.80;99.90
24011;DHT22;12217;50.792;4.372;2024-02-15T06:48:28;13.80;99.90
24011;DHT22;12217;50.792;4.372;2024-02-15T06:50:54;13.70;99.90
24011;DHT22;12217;50.792;4.372;2024-02-15T06:53:19;13.80;99.90
24011;DHT22;12217;50.792;4.372;2024-02-15T06:55:46;13.80;99.90
24011;DHT22;12217;50.792;4.372;2024-02-15T06:58:17;13.70;99.90
24011;DHT22;12217;50.792;4.372;2024-02-15T07:00:43;13.70;99.90
24011;DHT22;12217;50.792;4.372;2024-02-15T07:03:09;13.80;99.90
24011;DHT22;12217;50.792;4.372;2024-02-15T07:05:36;13.80;99.90
24011;DHT22;12217;50.792;4.372;2024-02-15T07:08:07;13.80;99.90
24011;DHT22;12217;50.792;4.372;2024-02-15T07:10:37;13.80;99.90
24011;DHT22;12217;50.792;4.372;2024-02-15T07:13:04;13.80;99.90
24011;DHT22;12217;50.792;4.372;2024-02-15T07:15:29;13.70;99.90
24011;DHT22;12217;50.792;4.372;2024-02-15T07:17:58;13.70;99.90
24011;DHT22;12217;50.792;4.372;2024-02-15T07:20:24;13.70;99.90
24011;DHT22;12217;50.792;4.372;2024-02-15T07:22:51;13.60;99.90
24011;DHT22;12217;50.792;4.372;2024-02-15T07:25:16;13.70;99.90
24011;DHT22;12217;50.792;4.372;2024-02-15T07:27:43;13.90;99.90
24011;DHT22;12217;50.792;4.372;2024-02-15T07:30:09;14.00;99.90
24011;DHT22;12217;50.792;4.372;2024-02-15T07:32:35;14.00;99.90
24011;DHT22;12217;50.792;4.372;2024-02-15T07:35:01;14.00;99.90
24011;DHT22;12217;50.792;4.372;2024-02-15T07:37:26;14.00;99.90
24011;DHT22;12217;50.792;4.372;2024-02-15T07:39:54;14.00;99.90
24011;DHT22;12217;50.792;4.372;2024-02-15T07:42:20;14.10;99.90
24011;DHT22;12217;50.792;4.372;2024-02-15T07:44:45;14.10;99.90
24011;DHT22;12217;50.792;4.372;2024-02-15T07:47:11;14.20;99.90
24011;DHT22;12217;50.792;4.372;2024-02-15T07:49:36;14.20;99.90
24011;DHT22;12217;50.792;4.372;2024-02-15T07:52:03;14.40;99.90
24011;DHT22;12217;50.792;4.372;2024-02-15T07:54:30;14.30;99.90
24011;DHT22;12217;50.792;4.372;2024-02-15T07:56:58;14.30;99.90
24011;DHT22;12217;50.792;4.372;2024-02-15T07:59:24;14.30;99.90
24011;DHT22;12217;50.792;4.372;2024-02-15T08:01:50;14.30;99.90
24011;DHT22;12217;50.792;4.372;2024-02-15T08:04:16;14.40;99.90
24011;DHT22;12217;50.792;4.372;2024-02-15T08:06:46;14.30;99.90
24011;DHT22;12217;50.792;4.372;2024-02-15T08:09:15;14.40;99.90
24011;DHT22;12217;50.792;4.372;2024-02-15T08:11:43;14.40;99.90
24011;DHT22;12217;50.792;4.372;2024-02-15T08:14:09;14.50;99.90
24011;DHT22;12217;50.792;4.372;2024-02-15T08:16:36;14.50;99.90
24011;DHT22;12217;50.792;4.372;2024-02-15T08:19:03;14.40;99.90
24011;DHT22;12217;50.792;4.372;2024-02-15T08:21:31;14.50;99.90
24011;DHT22;12217;50.792;4.372;2024-02-15T08:24:06;14.40;99.90
24011;DHT22;12217;50.792;4.372;2024-02-15T08:26:32;14.50;99.90
24011;DHT22;12217;50.792;4.372;2024-02-15T08:28:58;14.50;99.90
24011;DHT22;12217;50.792;4.372;2024-02-15T08:31:24;14.50;99.90
24011;DHT22;12217;50.792;4.372;2024-02-15T08:33:49;14.60;99.90
24011;DHT22;12217;50.792;4.372;2024-02-15T08:36:15;14.60;99.90
24011;DHT22;12217;50.792;4.372;2024-02-15T08:38:41;14.50;99.90
24011;DHT22;12217;50.792;4.372;2024-02-15T08:41:06;14.70;99.90
24011;DHT22;12217;50.792;4.372;2024-02-15T08:43:34;14.70;99.90
24011;DHT22;12217;50.792;4.372;2024-02-15T08:45:59;14.70;99.90
24011;DHT22;12217;50.792;4.372;2024-02-15T08:48:26;14.70;99.90
24011;DHT22;12217;50.792;4.372;2024-02-15T08:50:52;14.90;99.90
24011;DHT22;12217;50.792;4.372;2024-02-15T08:53:17;14.80;99.90
24011;DHT22;12217;50.792;4.372;2024-02-15T08:55:47;14.90;99.90
24011;DHT22;12217;50.792;4.372;2024-02-15T08:58:13;14.90;99.90
24011;DHT22;12217;50.792;4.372;2024-02-15T09:00:39;15.00;99.90
24011;DHT22;12217;50.792;4.372;2024-02-15T09:03:10;15.00;99.90
24011;DHT22;12217;50.792;4.372;2024-02-15T09:05:36;15.20;99.90
24011;DHT22;12217;50.792;4.372;2024-02-15T09:08:01;15.30;99.90
24011;DHT22;12217;50.792;4.372;2024-02-15T09:10:30;15.30;99.90
24011;DHT22;12217;50.792;4.372;2024-02-15T09:12:56;15.30;99.90
24011;DHT22;12217;50.792;4.372;2024-02-15T09:15:22;15.20;99.90
24011;DHT22;12217;50.792;4.372;2024-02-15T09:17:48;15.30;99.90
24011;DHT22;12217;50.792;4.372;2024-02-15T09:20:14;15.30;99.90
24011;DHT22;12217;50.792;4.372;2024-02-15T09:22:51;15.30;99.90
24011;DHT22;12217;50.792;4.372;2024-02-15T09:25:18;15.40;99.90
24011;DHT22;12217;50.792;4.372;2024-02-15T09:27:45;15.30;99.90
24011;DHT22;12217;50.792;4.372;2024-02-15T09:30:13;15.40;99.90
24011;DHT22;12217;50.792;4.372;2024-02-15T09:32:40;15.50;99.90
24011;DHT22;12217;50.792;4.372;2024-02-15T09:35:06;15.60;99.90
24011;DHT22;12217;50.792;4.372;2024-02-15T09:37:43;15.70;99.90
24011;DHT22;12217;50.792;4.372;2024-02-15T09:40:11;15.90;99.90
24011;DHT22;12217;50.792;4.372;2024-02-15T09:42:37;16.00;99.90
24011;DHT22;12217;50.792;4.372;2024-02-15T09:45:08;16.00;99.90
24011;DHT22;12217;50.792;4.372;2024-02-15T09:47:38;16.10;99.90
24011;DHT22;12217;50.792;4.372;2024-02-15T09:52:34;16.20;99.90
24011;DHT22;12217;50.792;4.372;2024-02-15T09:55:03;16.20;99.90
24011;DHT22;12217;50.792;4.372;2024-02-15T09:57:29;16.00;99.90
24011;DHT22;12217;50.792;4.372;2024-02-15T09:59:57;16.00;99.90
24011;DHT22;12217;50.792;4.372;2024-02-15T10:02:24;16.10;99.90
24011;DHT22;12217;50.792;4.372;2024-02-15T10:04:50;16.20;99.90
24011;DHT22;12217;50.792;4.372;2024-02-15T10:07:16;16.10;99.90
24011;DHT22;12217;50.792;4.372;2024-02-15T10:09:43;16.00;99.90
24011;DHT22;12217;50.792;4.372;2024-02-15T10:12:09;15.70;99.90
24011;DHT22;12217;50.792;4.372;2024-02-15T10:14:35;15.80;99.90
24011;DHT22;12217;50.792;4.372;2024-02-15T10:17:08;15.90;99.90
24011;DHT22;12217;50.792;4.372;2024-02-15T10:19:37;16.10;99.90
24011;DHT22;12217;50.792;4.372;2024-02-15T10:22:08;16.00;99.90
24011;DHT22;12217;50.792;4.372;2024-02-15T10:24:34;16.10;99.90
24011;DHT22;12217;50.792;4.372;2024-02-15T10:27:01;16.20;99.90
24011;DHT22;12217;50.792;4.372;2024-02-15T10:29:31;16.20;99.90
24011;DHT22;12217;50.792;4.372;2024-02-15T10:31:59;16.30;99.90
24011;DHT22;12217;50.792;4.372;2024-02-15T10:34:24;16.40;99.90
24011;DHT22;12217;50.792;4.372;2024-02-15T10:36:54;16.60;99.90
24011;DHT22;12217;50.792;4.372;2024-02-15T10:39:22;16.90;99.90
24011;DHT22;12217;50.792;4.372;2024-02-15T10:41:53;17.00;99.90
24011;DHT22;12217;50.792;4.372;2024-02-15T10:44:26;17.10;99.90
24011;DHT22;12217;50.792;4.372;2024-02-15T10:46:52;17.10;99.90
24011;DHT22;12217;50.792;4.372;2024-02-15T10:49:23;17.20;99.90
24011;DHT22;12217;50.792;4.372;2024-02-15T10:51:55;17.40;99.90
24011;DHT22;12217;50.792;4.372;2024-02-15T10:54:40;17.80;99.90
24011;DHT22;12217;50.792;4.372;2024-02-15T10:57:09;17.70;99.90
24011;DHT22;12217;50.792;4.372;2024-02-15T10:59:35;17.70;99.90
24011;DHT22;12217;50.792;4.372;2024-02-15T11:02:30;17.60;99.90
24011;DHT22;12217;50.792;4.372;2024-02-15T11:05:15;17.50;99.90
24011;DHT22;12217;50.792;4.372;2024-02-15T11:07:46;17.20;99.90
24011;DHT22;12217;50.792;4.372;2024-02-15T11:10:12;17.10;99.90
24011;DHT22;12217;50.792;4.372;2024-02-15T11:12:42;17.10;99.90
24011;DHT22;12217;50.792;4.372;2024-02-15T11:15:09;17.20;99.90
24011;DHT22;12217;50.792;4.372;2024-02-15T11:17:45;17.00;99.90
24011;DHT22;12217;50.792;4.372;2024-02-15T11:23:01;16.70;99.90
24011;DHT22;12217;50.792;4.372;2024-02-15T11:25:33;17.00;99.90
24011;DHT22;12217;50.792;4.372;2024-02-15T11:30:46;17.00;99.90
24011;DHT22;12217;50.792;4.372;2024-02-15T11:33:29;17.00;99.90
24011;DHT22;12217;50.792;4.372;2024-02-15T11:36:07;17.10;99.90
24011;DHT22;12217;50.792;4.372;2024-02-15T11:38:36;17.20;99.90
24011;DHT22;12217;50.792;4.372;2024-02-15T11:41:03;17.20;99.90
24011;DHT22;12217;50.792;4.372;2024-02-15T11:43:46;17.10;99.90
24011;DHT22;12217;50.792;4.372;2024-02-15T11:46:19;17.00;99.90
24011;DHT22;12217;50.792;4.372;2024-02-15T11:48:52;16.90;99.90
24011;DHT22;12217;50.792;4.372;2024-02-15T11:51:39;17.00;99.90
24011;DHT22;12217;50.792;4.372;2024-02-15T11:54:11;17.20;99.90
24011;DHT22;12217;50.792;4.372;2024-02-15T11:56:52;17.30;99.90
24011;DHT22;12217;50.792;4.372;2024-02-15T11:59:41;17.60;99.90
24011;DHT22;12217;50.792;4.372;2024-02-15T12:02:38;17.70;99.90
24011;DHT22;12217;50.792;4.372;2024-02-15T12:05:22;17.60;99.90
24011;DHT22;12217;50.792;4.372;2024-02-15T12:08:06;17.60;99.90
24011;DHT22;12217;50.792;4.372;2024-02-15T12:11:00;17.40;99.90
24011;DHT22;12217;50.792;4.372;2024-02-15T12:13:54;17.30;99.90
24011;DHT22;12217;50.792;4.372;2024-02-15T12:17:11;17.40;99.90
24011;DHT22;12217;50.792;4.372;2024-02-15T12:19:59;17.30;99.90
24011;DHT22;12217;50.792;4.372;2024-02-15T12:22:40;17.10;99.90
24011;DHT22;12217;50.792;4.372;2024-02-15T12:25:07;17.20;99.90
24011;DHT22;12217;50.792;4.372;2024-02-15T12:27:40;17.30;99.90
24011;DHT22;12217;50.792;4.372;2024-02-15T12:30:07;17.60;99.90
24011;DHT22;12217;50.792;4.372;2024-02-15T12:32:34;17.70;99.90
24011;DHT22;12217;50.792;4.372;2024-02-15T12:35:11;17.80;99.90
24011;DHT22;12217;50.792;4.372;2024-02-15T12:40:23;17.80;99.90
24011;DHT22;12217;50.792;4.372;2024-02-15T12:42:49;17.70;99.90
24011;DHT22;12217;50.792;4.372;2024-02-15T12:45:19;17.60;99.90
24011;DHT22;12217;50.792;4.372;2024-02-15T12:47:50;17.60;99.90
24011;DHT22;12217;50.792;4.372;2024-02-15T12:50:17;17.60;99.90
24011;DHT22;12217;50.792;4.372;2024-02-15T12:52:45;17.80;99.90
24011;DHT22;12217;50.792;4.372;2024-02-15T12:55:22;17.90;99.90
24011;DHT22;12217;50.792;4.372;2024-02-15T12:57:51;18.30;99.90
24011;DHT22;12217;50.792;4.372;2024-02-15T13:00:26;18.30;99.90
24011;DHT22;12217;50.792;4.372;2024-02-15T13:02:57;18.20;99.90
24011;DHT22;12217;50.792;4.372;2024-02-15T13:05:25;18.00;99.90
24011;DHT22;12217;50.792;4.372;2024-02-15T13:07:53;18.10;99.90
24011;DHT22;12217;50.792;4.372;2024-02-15T13:10:36;18.20;99.90
24011;DHT22;12217;50.792;4.372;2024-02-15T13:13:02;19.10;99.90
24011;DHT22;12217;50.792;4.372;2024-02-15T13:15:27;20.70;99.90
24011;DHT22;12217;50.792;4.372;2024-02-15T13:17:58;21.90;99.90
24011;DHT22;12217;50.792;4.372;2024-02-15T13:20:25;21.90;99.90
24011;DHT22;12217;50.792;4.372;2024-02-15T13:23:02;21.40;99.90
24011;DHT22;12217;50.792;4.372;2024-02-15T13:25:33;20.80;99.90
24011;DHT22;12217;50.792;4.372;2024-02-15T13:27:59;20.50;99.90
24011;DHT22;12217;50.792;4.372;2024-02-15T13:30:25;20.60;99.90
24011;DHT22;12217;50.792;4.372;2024-02-15T13:32:53;20.60;99.90
24011;DHT22;12217;50.792;4.372;2024-02-15T13:35:22;20.90;99.90
24011;DHT22;12217;50.792;4.372;2024-02-15T13:37:50;20.60;99.90
24011;DHT22;12217;50.792;4.372;2024-02-15T13:40:18;20.10;99.90
24011;DHT22;12217;50.792;4.372;2024-02-15T13:42:46;19.90;99.90
24011;DHT22;12217;50.792;4.372;2024-02-15T13:45:30;20.30;99.90
24011;DHT22;12217;50.792;4.372;2024-02-15T13:47:59;21.30;99.90
24011;DHT22;12217;50.792;4.372;2024-02-15T13:50:28;21.50;99.90
24011;DHT22;12217;50.792;4.372;2024-02-15T13:52:53;21.20;99.90
24011;DHT22;12217;50.792;4.372;2024-02-15T13:55:19;20.00;99.90
24011;DHT22;12217;50.792;4.372;2024-02-15T13:57:48;19.50;99.90
24011;DHT22;12217;50.792;4.372;2024-02-15T14:00:15;19.20;99.90
24011;DHT22;12217;50.792;4.372;2024-02-15T14:02:58;19.10;99.90
24011;DHT22;12217;50.792;4.372;2024-02-15T14:05:27;19.10;99.90
24011;DHT22;12217;50.792;4.372;2024-02-15T14:08:00;19.50;99.90
24011;DHT22;12217;50.792;4.372;2024-02-15T14:10:30;19.20;99.90
24011;DHT22;12217;50.792;4.372;2024-02-15T14:12:56;19.00;99.90
24011;DHT22;12217;50.792;4.372;2024-02-15T14:15:25;18.70;99.90
24011;DHT22;12217;50.792;4.372;2024-02-15T14:17:51;18.30;99.90
24011;DHT22;12217;50.792;4.372;2024-02-15T14:20:17;18.30;99.90
24011;DHT22;12217;50.792;4.372;2024-02-15T14:22:46;18.40;99.90
24011;DHT22;12217;50.792;4.372;2024-02-15T14:25:17;18.30;99.90
24011;DHT22;12217;50.792;4.372;2024-02-15T14:27:43;18.10;99.90
24011;DHT22;12217;50.792;4.372;2024-02-15T14:30:08;18.00;99.90
24011;DHT22;12217;50.792;4.372;2024-02-15T14:32:53;18.10;99.90
24011;DHT22;12217;50.792;4.372;2024-02-15T14:35:36;18.10;99.90
24011;DHT22;12217;50.792;4.372;2024-02-15T14:38:03;18.20;99.90
24011;DHT22;12217;50.792;4.372;2024-02-15T14:40:35;18.30;99.90
24011;DHT22;12217;50.792;4.372;2024-02-15T14:43:02;18.40;99.90
24011;DHT22;12217;50.792;4.372;2024-02-15T14:45:30;18.40;99.90
24011;DHT22;12217;50.792;4.372;2024-02-15T14:47:57;18.70;99.90
24011;DHT22;12217;50.792;4.372;2024-02-15T14:50:23;18.70;99.90
24011;DHT22;12217;50.792;4.372;2024-02-15T14:52:49;18.80;99.90
24011;DHT22;12217;50.792;4.372;2024-02-15T14:55:15;18.50;99.90
24011;DHT22;12217;50.792;4.372;2024-02-15T14:57:40;18.50;99.90
24011;DHT22;12217;50.792;4.372;2024-02-15T15:00:06;18.60;99.90
24011;DHT22;12217;50.792;4.372;2024-02-15T15:02:47;18.50;99.90
24011;DHT22;12217;50.792;4.372;2024-02-15T15:05:13;18.40;99.90
24011;DHT22;12217;50.792;4.372;2024-02-15T15:07:58;18.20;99.90
24011;DHT22;12217;50.792;4.372;2024-02-15T15:10:45;18.10;99.90
24011;DHT22;12217;50.792;4.372;2024-02-15T15:13:29;18.00;99.90
24011;DHT22;12217;50.792;4.372;2024-02-15T15:15:55;18.00;99.90
24011;DHT22;12217;50.792;4.372;2024-02-15T15:18:20;18.50;99.90
24011;DHT22;12217;50.792;4.372;2024-02-15T15:20:47;19.10;99.90
24011;DHT22;12217;50.792;4.372;2024-02-15T15:23:13;19.50;99.90
24011;DHT22;12217;50.792;4.372;2024-02-15T15:25:41;19.50;99.90
24011;DHT22;12217;50.792;4.372;2024-02-15T15:28:07;19.40;99.90
24011;DHT22;12217;50.792;4.372;2024-02-15T15:30:33;19.20;99.90
24011;DHT22;12217;50.792;4.372;2024-02-15T15:32:58;19.00;99.90
24011;DHT22;12217;50.792;4.372;2024-02-15T15:35:26;18.90;99.90
24011;DHT22;12217;50.792;4.372;2024-02-15T15:37:52;19.00;99.90
24011;DHT22;12217;50.792;4.372;2024-02-15T15:40:19;19.10;99.90
24011;DHT22;12217;50.792;4.372;2024-02-15T15:42:45;19.20;99.90
24011;DHT22;12217;50.792;4.372;2024-02-15T15:45:11;19.10;99.90
24011;DHT22;12217;50.792;4.372;2024-02-15T15:47:38;19.10;99.90
24011;DHT22;12217;50.792;4.372;2024-02-15T15:50:05;19.00;99.90